sensor_id;sensor_type;location;lat;lon;timestamp;pressure;altitude;pressure_sealevel;temperature;humidity
75146;BME280;63641;46.526;24.612;2023-01-28T00:00:52;96862.97;;;1.71;75.90
75146;BME280;63641;46.526;24.612;2023-01-28T00:03:19;96865.41;;;1.73;76.25
75146;BME280;63641;46.526;24.612;2023-01-28T00:05:46;96861.13;;;1.72;76.08
75146;BME280;63641;46.526;24.612;2023-01-28T00:08:12;96869.47;;;1.75;76.16
75146;BME280;63641;46.526;24.612;2023-01-28T00:10:40;96868.41;;;1.76;76.37
75146;BME280;63641;46.526;24.612;2023-01-28T00:13:11;96852.06;;;1.73;76.29
75146;BME280;63641;46.526;24.612;2023-01-28T00:15:40;96865.53;;;1.78;76.04
75146;BME280;63641;46.526;24.612;2023-01-28T00:18:07;96866.31;;;1.78;76.18
75146;BME280;63641;46.526;24.612;2023-01-28T00:20:34;96870.84;;;1.78;76.19
75146;BME280;63641;46.526;24.612;2023-01-28T00:23:01;96855.78;;;1.72;76.14
75146;BME280;63641;46.526;24.612;2023-01-28T00:25:27;96867.13;;;1.79;76.21
75146;BME280;63641;46.526;24.612;2023-01-28T00:27:54;96869.00;;;1.78;76.22
75146;BME280;63641;46.526;24.612;2023-01-28T00:30:21;96873.28;;;1.79;76.26
75146;BME280;63641;46.526;24.612;2023-01-28T00:32:48;96865.53;;;1.78;75.98
75146;BME280;63641;46.526;24.612;2023-01-28T00:35:15;96874.66;;;1.82;75.97
75146;BME280;63641;46.526;24.612;2023-01-28T00:37:45;96878.94;;;1.83;75.96
75146;BME280;63641;46.526;24.612;2023-01-28T00:40:12;96875.72;;;1.81;76.32
75146;BME280;63641;46.526;24.612;2023-01-28T00:42:39;96888.81;;;1.82;75.93
75146;BME280;63641;46.526;24.612;2023-01-28T00:45:06;96866.53;;;1.77;75.91
75146;BME280;63641;46.526;24.612;2023-01-28T00:47:33;96870.25;;;1.76;76.06
75146;BME280;63641;46.526;24.612;2023-01-28T00:49:59;96872.94;;;1.76;75.92
75146;BME280;63641;46.526;24.612;2023-01-28T00:52:26;96866.53;;;1.77;76.28
75146;BME280;63641;46.526;24.612;2023-01-28T00:54:53;96869.13;;;1.72;76.15
75146;BME280;63641;46.526;24.612;2023-01-28T00:57:20;96865.91;;;1.69;76.23
75146;BME280;63641;46.526;24.612;2023-01-28T00:59:47;96873.78;;;1.64;75.85
75146;BME280;63641;46.526;24.612;2023-01-28T01:02:14;96863.72;;;1.55;76.33
75146;BME280;63641;46.526;24.612;2023-01-28T01:04:40;96856.31;;;1.45;76.39
75146;BME280;63641;46.526;24.612;2023-01-28T01:07:21;96868.25;;;1.42;76.55
75146;BME280;63641;46.526;24.612;2023-01-28T01:10:00;96869.75;;;1.38;76.58
75146;BME280;63641;46.526;24.612;2023-01-28T01:12:28;96863.53;;;1.33;76.78
75146;BME280;63641;46.526;24.612;2023-01-28T01:14:56;96865.00;;;1.29;76.68
75146;BME280;63641;46.526;24.612;2023-01-28T01:17:23;96859.81;;;1.22;76.82
75146;BME280;63641;46.526;24.612;2023-01-28T01:19:49;96874.41;;;1.19;76.61
75146;BME280;63641;46.526;24.612;2023-01-28T01:22:16;96876.47;;;1.17;76.77
75146;BME280;63641;46.526;24.612;2023-01-28T01:24:43;96876.97;;;1.14;76.76
75146;BME280;63641;46.526;24.612;2023-01-28T01:27:10;96876.97;;;1.14;76.76
75146;BME280;63641;46.526;24.612;2023-01-28T01:29:37;96854.28;;;1.00;77.01
75146;BME280;63641;46.526;24.612;2023-01-28T01:32:04;96879.50;;;1.09;77.14
75146;BME280;63641;46.526;24.612;2023-01-28T01:34:31;96878.94;;;1.07;76.94
75146;BME280;63641;46.526;24.612;2023-01-28T01:36:58;96871.97;;;1.06;77.04
75146;BME280;63641;46.526;24.612;2023-01-28T01:39:24;96882.88;;;1.05;76.80
75146;BME280;63641;46.526;24.612;2023-01-28T01:41:51;96879.25;;;0.99;77.06
75146;BME280;63641;46.526;24.612;2023-01-28T01:50:16;96876.13;;;0.90;77.07
75146;BME280;63641;46.526;24.612;2023-01-28T01:52:48;96871.72;;;0.84;77.30
75146;BME280;63641;46.526;24.612;2023-01-28T01:55:20;96876.03;;;0.85;77.28
75146;BME280;63641;46.526;24.612;2023-01-28T01:57:51;96878.34;;;0.82;77.34
75146;BME280;63641;46.526;24.612;2023-01-28T02:00:18;96873.22;;;0.80;77.16
75146;BME280;63641;46.526;24.612;2023-01-28T02:02:47;96875.09;;;0.80;77.43
75146;BME280;63641;46.526;24.612;2023-01-28T02:05:18;96871.84;;;0.78;77.50
75146;BME280;63641;46.526;24.612;2023-01-28T02:07:46;96873.94;;;0.76;77.56
75146;BME280;63641;46.526;24.612;2023-01-28T02:10:15;96874.38;;;0.72;77.55
75146;BME280;63641;46.526;24.612;2023-01-28T02:12:46;96877.03;;;0.72;77.44
75146;BME280;63641;46.526;24.612;2023-01-28T02:15:16;96873.81;;;0.70;77.62
75146;BME280;63641;46.526;24.612;2023-01-28T02:17:43;96883.41;;;0.71;77.68
75146;BME280;63641;46.526;24.612;2023-01-28T02:20:13;96886.88;;;0.72;77.38
75146;BME280;63641;46.526;24.612;2023-01-28T02:23:12;96885.03;;;0.72;77.36
75146;BME280;63641;46.526;24.612;2023-01-28T02:28:33;96893.63;;;0.75;77.46
75146;BME280;63641;46.526;24.612;2023-01-28T02:37:10;96889.44;;;0.79;77.39
75146;BME280;63641;46.526;24.612;2023-01-28T02:39:46;96888.41;;;0.80;77.36
75146;BME280;63641;46.526;24.612;2023-01-28T02:42:18;96893.72;;;0.80;77.09
75146;BME280;63641;46.526;24.612;2023-01-28T02:44:46;96892.69;;;0.81;77.34
75146;BME280;63641;46.526;24.612;2023-01-28T02:47:14;96890.84;;;0.81;77.41
75146;BME280;63641;46.526;24.612;2023-01-28T02:50:03;96887.84;;;0.78;77.34
75146;BME280;63641;46.526;24.612;2023-01-28T02:53:14;96895.47;;;0.86;77.40
75146;BME280;63641;46.526;24.612;2023-01-28T02:59:02;96883.22;;;0.85;77.20
75146;BME280;63641;46.526;24.612;2023-01-28T03:04:32;96889.56;;;0.95;77.28
75146;BME280;63641;46.526;24.612;2023-01-28T03:07:04;96887.75;;;0.96;77.02
75146;BME280;63641;46.526;24.612;2023-01-28T03:09:34;96880.41;;;0.91;76.94
75146;BME280;63641;46.526;24.612;2023-01-28T03:12:13;96890.41;;;1.08;77.00
75146;BME280;63641;46.526;24.612;2023-01-28T03:15:05;96890.16;;;1.09;77.17
75146;BME280;63641;46.526;24.612;2023-01-28T03:18:16;96896.19;;;1.16;76.94
75146;BME280;63641;46.526;24.612;2023-01-28T03:23:53;96897.94;;;1.23;77.01
75146;BME280;63641;46.526;24.612;2023-01-28T03:27:13;96895.84;;;1.25;76.50
75146;BME280;63641;46.526;24.612;2023-01-28T03:29:59;96898.84;;;1.28;76.93
75146;BME280;63641;46.526;24.612;2023-01-28T03:32:45;96892.72;;;1.28;76.62
75146;BME280;63641;46.526;24.612;2023-01-28T03:35:33;96901.28;;;1.30;76.81
75146;BME280;63641;46.526;24.612;2023-01-28T03:38:20;96896.53;;;1.32;76.59
75146;BME280;63641;46.526;24.612;2023-01-28T03:40:59;96889.13;;;1.34;76.67
75146;BME280;63641;46.526;24.612;2023-01-28T03:43:29;96883.19;;;1.32;76.84
75146;BME280;63641;46.526;24.612;2023-01-28T03:45:57;96888.53;;;1.32;76.85
75146;BME280;63641;46.526;24.612;2023-01-28T03:48:25;96904.06;;;1.35;76.51
75146;BME280;63641;46.526;24.612;2023-01-28T03:50:54;96895.25;;;1.34;76.88
75146;BME280;63641;46.526;24.612;2023-01-28T03:53:21;96890.03;;;1.28;76.95
75146;BME280;63641;46.526;24.612;2023-01-28T03:55:49;96891.19;;;1.32;77.08
75146;BME280;63641;46.526;24.612;2023-01-28T03:58:17;96900.00;;;1.32;76.69
75146;BME280;63641;46.526;24.612;2023-01-28T04:00:45;96899.19;;;1.32;77.08
75146;BME280;63641;46.526;24.612;2023-01-28T04:03:17;96898.38;;;1.31;76.98
75146;BME280;63641;46.526;24.612;2023-01-28T04:06:07;96915.53;;;1.35;76.74
75146;BME280;63641;46.526;24.612;2023-01-28T04:08:33;96915.53;;;1.35;76.91
75146;BME280;63641;46.526;24.612;2023-01-28T04:10:59;96915.53;;;1.35;76.86
75146;BME280;63641;46.526;24.612;2023-01-28T04:13:42;96918.44;;;1.34;76.77
75146;BME280;63641;46.526;24.612;2023-01-28T04:16:10;96923.31;;;1.37;76.88
75146;BME280;63641;46.526;24.612;2023-01-28T04:18:37;96922.97;;;1.33;77.02
75146;BME280;63641;46.526;24.612;2023-01-28T04:21:04;96930.50;;;1.36;76.71
75146;BME280;63641;46.526;24.612;2023-01-28T04:23:31;96924.34;;;1.36;76.72
75146;BME280;63641;46.526;24.612;2023-01-28T04:25:57;96927.50;;;1.33;77.01
75146;BME280;63641;46.526;24.612;2023-01-28T04:28:24;96930.97;;;1.33;76.73
75146;BME280;63641;46.526;24.612;2023-01-28T04:30:51;96938.25;;;1.38;77.08
75146;BME280;63641;46.526;24.612;2023-01-28T04:33:18;96938.50;;;1.36;76.93
75146;BME280;63641;46.526;24.612;2023-01-28T04:35:45;96941.84;;;1.32;76.72
75146;BME280;63641;46.526;24.612;2023-01-28T04:38:12;96932.13;;;1.26;77.02
75146;BME280;63641;46.526;24.612;2023-01-28T04:40:38;96941.13;;;1.25;77.01
75146;BME280;63641;46.526;24.612;2023-01-28T04:43:05;96942.31;;;1.29;77.00
75146;BME280;63641;46.526;24.612;2023-01-28T04:45:32;96934.19;;;1.24;77.15
75146;BME280;63641;46.526;24.612;2023-01-28T04:47:58;96951.47;;;1.33;77.06
75146;BME280;63641;46.526;24.612;2023-01-28T04:50:26;96948.56;;;1.34;76.86
75146;BME280;63641;46.526;24.612;2023-01-28T04:52:53;96951.25;;;1.34;76.75
75146;BME280;63641;46.526;24.612;2023-01-28T04:55:19;96952.03;;;1.35;76.95
75146;BME280;63641;46.526;24.612;2023-01-28T04:57:46;96951.00;;;1.36;76.48
75146;BME280;63641;46.526;24.612;2023-01-28T05:00:16;96947.19;;;1.32;76.52
75146;BME280;63641;46.526;24.612;2023-01-28T05:02:43;96956.31;;;1.36;76.67
75146;BME280;63641;46.526;24.612;2023-01-28T05:05:10;96960.41;;;1.38;76.71
75146;BME280;63641;46.526;24.612;2023-01-28T05:07:36;96963.06;;;1.38;76.70
75146;BME280;63641;46.526;24.612;2023-01-28T05:10:03;96955.97;;;1.32;76.72
75146;BME280;63641;46.526;24.612;2023-01-28T05:12:30;96954.16;;;1.33;76.56
75146;BME280;63641;46.526;24.612;2023-01-28T05:14:59;96955.97;;;1.32;76.55
75146;BME280;63641;46.526;24.612;2023-01-28T05:17:27;96968.50;;;1.32;76.40
75146;BME280;63641;46.526;24.612;2023-01-28T05:19:54;96965.28;;;1.30;76.87
75146;BME280;63641;46.526;24.612;2023-01-28T05:22:21;96967.69;;;1.31;76.96
75146;BME280;63641;46.526;24.612;2023-01-28T05:24:48;96973.81;;;1.32;76.73
75146;BME280;63641;46.526;24.612;2023-01-28T05:27:15;96976.75;;;1.30;76.62
75146;BME280;63641;46.526;24.612;2023-01-28T05:29:42;96981.81;;;1.32;76.53
75146;BME280;63641;46.526;24.612;2023-01-28T05:32:08;96977.53;;;1.31;76.76
75146;BME280;63641;46.526;24.612;2023-01-28T05:34:35;96988.66;;;1.28;76.57
75146;BME280;63641;46.526;24.612;2023-01-28T05:37:02;96992.72;;;1.30;76.71
75146;BME280;63641;46.526;24.612;2023-01-28T05:39:29;96991.91;;;1.30;76.47
75146;BME280;63641;46.526;24.612;2023-01-28T05:41:57;96999.31;;;1.28;76.54
75146;BME280;63641;46.526;24.612;2023-01-28T05:44:23;96995.03;;;1.27;76.64
75146;BME280;63641;46.526;24.612;2023-01-28T05:46:50;97001.19;;;1.27;76.50
75146;BME280;63641;46.526;24.612;2023-01-28T05:49:17;97004.66;;;1.28;76.35
75146;BME280;63641;46.526;24.612;2023-01-28T05:51:43;97009.19;;;1.27;76.46
75146;BME280;63641;46.526;24.612;2023-01-28T05:54:10;97009.97;;;1.28;76.31
75146;BME280;63641;46.526;24.612;2023-01-28T05:56:37;97004.91;;;1.26;76.17
75146;BME280;63641;46.526;24.612;2023-01-28T05:59:05;97004.75;;;1.21;76.19
75146;BME280;63641;46.526;24.612;2023-01-28T06:01:32;96995.38;;;1.18;76.43
75146;BME280;63641;46.526;24.612;2023-01-28T06:03:59;97015.78;;;1.25;76.24
75146;BME280;63641;46.526;24.612;2023-01-28T06:06:26;97009.41;;;1.26;76.30
75146;BME280;63641;46.526;24.612;2023-01-28T06:08:52;97005.59;;;1.22;76.31
75146;BME280;63641;46.526;24.612;2023-01-28T06:11:19;97018.22;;;1.26;76.20
75146;BME280;63641;46.526;24.612;2023-01-28T06:13:46;97015.19;;;1.23;75.95
75146;BME280;63641;46.526;24.612;2023-01-28T06:16:13;97017.63;;;1.24;75.92
75146;BME280;63641;46.526;24.612;2023-01-28T06:18:40;97021.09;;;1.25;75.81
75146;BME280;63641;46.526;24.612;2023-01-28T06:21:07;97024.34;;;1.27;76.01
75146;BME280;63641;46.526;24.612;2023-01-28T06:23:33;97027.22;;;1.25;75.84
75146;BME280;63641;46.526;24.612;2023-01-28T06:26:00;97039.09;;;1.29;75.68
75146;BME280;63641;46.526;24.612;2023-01-28T06:28:27;97037.22;;;1.30;75.77
75146;BME280;63641;46.526;24.612;2023-01-28T06:30:54;97038.84;;;1.31;75.67
75146;BME280;63641;46.526;24.612;2023-01-28T06:33:21;97040.47;;;1.32;75.88
75146;BME280;63641;46.526;24.612;2023-01-28T06:35:49;97051.03;;;1.38;75.50
75146;BME280;63641;46.526;24.612;2023-01-28T06:38:16;97045.13;;;1.36;75.77
75146;BME280;63641;46.526;24.612;2023-01-28T06:40:43;97041.19;;;1.39;75.71
75146;BME280;63641;46.526;24.612;2023-01-28T06:43:10;97051.75;;;1.45;75.79
75146;BME280;63641;46.526;24.612;2023-01-28T06:45:36;97056.84;;;1.47;75.84
75146;BME280;63641;46.526;24.612;2023-01-28T06:48:03;97058.03;;;1.51;75.73
75146;BME280;63641;46.526;24.612;2023-01-28T06:50:34;97061.03;;;1.55;75.26
75146;BME280;63641;46.526;24.612;2023-01-28T06:53:00;97073.09;;;1.57;75.37
75146;BME280;63641;46.526;24.612;2023-01-28T06:55:27;97063.00;;;1.59;75.57
75146;BME280;63641;46.526;24.612;2023-01-28T06:57:54;97063.56;;;1.61;75.44
75146;BME280;63641;46.526;24.612;2023-01-28T07:00:20;97059.88;;;1.62;75.40
75146;BME280;63641;46.526;24.612;2023-01-28T07:02:47;97072.28;;;1.68;75.23
75146;BME280;63641;46.526;24.612;2023-01-28T07:05:14;97077.16;;;1.72;75.14
75146;BME280;63641;46.526;24.612;2023-01-28T07:07:41;97076.69;;;1.75;75.08
75146;BME280;63641;46.526;24.612;2023-01-28T07:10:09;97072.53;;;1.79;74.96
75146;BME280;63641;46.526;24.612;2023-01-28T07:12:36;97073.94;;;1.81;75.14
75146;BME280;63641;46.526;24.612;2023-01-28T07:15:02;97069.75;;;1.85;74.77
75146;BME280;63641;46.526;24.612;2023-01-28T07:17:30;97080.78;;;1.89;74.83
75146;BME280;63641;46.526;24.612;2023-01-28T07:19:57;97086.81;;;1.96;74.69
75146;BME280;63641;46.526;24.612;2023-01-28T07:22:23;97078.91;;;2.01;74.71
75146;BME280;63641;46.526;24.612;2023-01-28T07:24:50;97085.41;;;2.05;74.65
75146;BME280;63641;46.526;24.612;2023-01-28T07:27:17;97080.88;;;2.06;74.80
75146;BME280;63641;46.526;24.612;2023-01-28T07:29:43;97088.75;;;2.12;74.44
75146;BME280;63641;46.526;24.612;2023-01-28T07:32:10;97088.06;;;2.17;74.62
75146;BME280;63641;46.526;24.612;2023-01-28T07:34:37;97089.91;;;2.16;74.55
75146;BME280;63641;46.526;24.612;2023-01-28T07:37:07;97092.13;;;2.20;74.40
75146;BME280;63641;46.526;24.612;2023-01-28T07:39:33;97107.22;;;2.26;74.52
75146;BME280;63641;46.526;24.612;2023-01-28T07:42:01;97109.19;;;2.30;74.36
75146;BME280;63641;46.526;24.612;2023-01-28T07:44:27;97102.22;;;2.29;74.06
75146;BME280;63641;46.526;24.612;2023-01-28T07:46:54;97111.16;;;2.35;74.11
75146;BME280;63641;46.526;24.612;2023-01-28T07:49:21;97106.97;;;2.39;74.41
75146;BME280;63641;46.526;24.612;2023-01-28T07:51:48;97118.00;;;2.42;74.29
75146;BME280;63641;46.526;24.612;2023-01-28T07:54:16;97111.38;;;2.45;74.09
75146;BME280;63641;46.526;24.612;2023-01-28T07:56:43;97110.91;;;2.48;74.08
75146;BME280;63641;46.526;24.612;2023-01-28T07:59:09;97102.66;;;2.50;74.17
75146;BME280;63641;46.526;24.612;2023-01-28T08:01:36;97105.88;;;2.63;74.05
75146;BME280;63641;46.526;24.612;2023-01-28T08:04:03;97105.41;;;2.66;74.13
75146;BME280;63641;46.526;24.612;2023-01-28T08:06:31;97116.19;;;2.72;73.88
75146;BME280;63641;46.526;24.612;2023-01-28T08:09:06;97110.97;;;2.77;73.71
75146;BME280;63641;46.526;24.612;2023-01-28T08:11:37;97106.19;;;2.79;73.57
75146;BME280;63641;46.526;24.612;2023-01-28T08:14:04;97111.53;;;2.79;73.62
75146;BME280;63641;46.526;24.612;2023-01-28T08:16:31;97114.22;;;2.79;73.66
75146;BME280;63641;46.526;24.612;2023-01-28T08:18:58;97113.16;;;2.80;73.45
75146;BME280;63641;46.526;24.612;2023-01-28T08:21:24;97106.53;;;2.82;73.62
75146;BME280;63641;46.526;24.612;2023-01-28T08:23:51;97110.81;;;2.83;73.26
75146;BME280;63641;46.526;24.612;2023-01-28T08:26:18;97105.25;;;2.85;73.41
75146;BME280;63641;46.526;24.612;2023-01-28T08:28:45;97108.81;;;2.90;73.33
75146;BME280;63641;46.526;24.612;2023-01-28T08:31:12;97110.22;;;2.93;73.27
75146;BME280;63641;46.526;24.612;2023-01-28T08:33:38;97102.19;;;2.93;73.31
75146;BME280;63641;46.526;24.612;2023-01-28T08:36:05;97120.78;;;3.00;72.98
75146;BME280;63641;46.526;24.612;2023-01-28T08:38:32;97121.59;;;3.00;73.12
75146;BME280;63641;46.526;24.612;2023-01-28T08:40:59;97121.34;;;3.02;72.89
75146;BME280;63641;46.526;24.612;2023-01-28T08:43:26;97122.16;;;3.02;72.88
75146;BME280;63641;46.526;24.612;2023-01-28T08:45:53;97107.53;;;2.93;72.71
75146;BME280;63641;46.526;24.612;2023-01-28T08:48:19;97128.66;;;3.06;72.86
75146;BME280;63641;46.526;24.612;2023-01-28T08:50:47;97123.06;;;3.08;72.98
75146;BME280;63641;46.526;24.612;2023-01-28T08:53:16;97130.75;;;3.04;72.74
75146;BME280;63641;46.526;24.612;2023-01-28T08:55:44;97134.22;;;3.05;72.65
75146;BME280;63641;46.526;24.612;2023-01-28T08:58:14;97134.22;;;3.05;72.60
75146;BME280;63641;46.526;24.612;2023-01-28T09:00:41;97130.75;;;3.04;72.68
75146;BME280;63641;46.526;24.612;2023-01-28T09:03:08;97136.69;;;3.06;72.79
75146;BME280;63641;46.526;24.612;2023-01-28T09:05:36;97129.00;;;3.10;72.69
75146;BME280;63641;46.526;24.612;2023-01-28T09:08:06;97127.69;;;3.12;72.48
75146;BME280;63641;46.526;24.612;2023-01-28T09:10:33;97129.66;;;3.17;72.69
75146;BME280;63641;46.526;24.612;2023-01-28T09:13:05;97128.34;;;3.20;72.58
75146;BME280;63641;46.526;24.612;2023-01-28T09:15:32;97128.13;;;3.21;72.52
75146;BME280;63641;46.526;24.612;2023-01-28T09:17:59;97133.25;;;3.23;72.24
75146;BME280;63641;46.526;24.612;2023-01-28T09:20:26;97110.84;;;3.12;72.39
75146;BME280;63641;46.526;24.612;2023-01-28T09:22:53;97124.66;;;3.21;72.11
75146;BME280;63641;46.526;24.612;2023-01-28T09:25:20;97122.47;;;3.18;72.23
75146;BME280;63641;46.526;24.612;2023-01-28T09:27:47;97127.09;;;3.22;72.21
75146;BME280;63641;46.526;24.612;2023-01-28T09:30:14;97125.06;;;3.29;72.03
75146;BME280;63641;46.526;24.612;2023-01-28T09:32:41;97125.88;;;3.30;72.03
75146;BME280;63641;46.526;24.612;2023-01-28T09:35:09;97127.59;;;3.36;71.90
75146;BME280;63641;46.526;24.612;2023-01-28T09:37:35;97121.78;;;3.39;71.72
75146;BME280;63641;46.526;24.612;2023-01-28T09:40:03;97123.97;;;3.42;71.85
75146;BME280;63641;46.526;24.612;2023-01-28T09:42:58;97126.16;;;3.45;71.66
75146;BME280;63641;46.526;24.612;2023-01-28T09:45:45;97126.88;;;3.41;71.70
75146;BME280;63641;46.526;24.612;2023-01-28T09:48:16;97122.59;;;3.39;71.92
75146;BME280;63641;46.526;24.612;2023-01-28T09:50:47;97122.00;;;3.37;71.71
75146;BME280;63641;46.526;24.612;2023-01-28T09:55:49;97113.09;;;3.32;71.74
75146;BME280;63641;46.526;24.612;2023-01-28T09:58:19;97116.56;;;3.32;71.88
75146;BME280;63641;46.526;24.612;2023-01-28T10:04:03;97128.16;;;3.38;71.61
75146;BME280;63641;46.526;24.612;2023-01-28T10:09:39;97123.97;;;3.42;71.18
75146;BME280;63641;46.526;24.612;2023-01-28T10:17:56;97126.69;;;3.30;71.73
75146;BME280;63641;46.526;24.612;2023-01-28T10:20:48;97125.56;;;3.26;71.66
75146;BME280;63641;46.526;24.612;2023-01-28T10:23:23;97134.19;;;3.17;71.83
75146;BME280;63641;46.526;24.612;2023-01-28T10:25:54;97117.72;;;3.08;71.75
75146;BME280;63641;46.526;24.612;2023-01-28T10:28:25;97125.19;;;3.06;71.79
75146;BME280;63641;46.526;24.612;2023-01-28T10:30:53;97118.66;;;3.02;71.77
75146;BME280;63641;46.526;24.612;2023-01-28T10:33:36;97123.66;;;3.10;71.84
75146;BME280;63641;46.526;24.612;2023-01-28T10:36:06;97119.44;;;3.14;71.78
75146;BME280;63641;46.526;24.612;2023-01-28T10:41:01;97121.91;;;3.04;72.22
75146;BME280;63641;46.526;24.612;2023-01-28T10:43:32;97114.97;;;3.03;71.79
75146;BME280;63641;46.526;24.612;2023-01-28T10:46:15;97120.41;;;3.08;72.06
75146;BME280;63641;46.526;24.612;2023-01-28T10:51:40;97124.41;;;3.22;71.70
75146;BME280;63641;46.526;24.612;2023-01-28T10:54:27;97114.31;;;3.24;71.43
75146;BME280;63641;46.526;24.612;2023-01-28T10:56:58;97124.59;;;3.32;71.44
75146;BME280;63641;46.526;24.612;2023-01-28T10:59:28;97116.91;;;3.36;71.13
75146;BME280;63641;46.526;24.612;2023-01-28T11:01:58;97113.75;;;3.39;71.27
75146;BME280;63641;46.526;24.612;2023-01-28T11:04:32;97109.97;;;3.52;70.90
75146;BME280;63641;46.526;24.612;2023-01-28T11:07:04;97113.22;;;3.54;70.71
75146;BME280;63641;46.526;24.612;2023-01-28T11:09:34;97103.81;;;3.51;70.84
75146;BME280;63641;46.526;24.612;2023-01-28T11:12:21;97110.63;;;3.59;70.64
75146;BME280;63641;46.526;24.612;2023-01-28T11:14:57;97112.50;;;3.58;70.45
75146;BME280;63641;46.526;24.612;2023-01-28T11:17:27;97116.31;;;3.62;70.66
75146;BME280;63641;46.526;24.612;2023-01-28T11:20:00;97112.88;;;3.67;70.75
75146;BME280;63641;46.526;24.612;2023-01-28T11:22:37;97118.09;;;3.74;70.46
75146;BME280;63641;46.526;24.612;2023-01-28T11:25:33;97116.88;;;3.81;70.38
75146;BME280;63641;46.526;24.612;2023-01-28T11:28:03;97096.03;;;3.67;70.18
75146;BME280;63641;46.526;24.612;2023-01-28T11:30:38;97114.47;;;3.80;70.16
75146;BME280;63641;46.526;24.612;2023-01-28T11:33:20;97110.38;;;3.77;70.13
75146;BME280;63641;46.526;24.612;2023-01-28T11:35:55;97107.06;;;3.70;70.14
75146;BME280;63641;46.526;24.612;2023-01-28T11:38:24;97107.22;;;3.63;70.65
75146;BME280;63641;46.526;24.612;2023-01-28T11:40:59;97106.56;;;3.56;70.70
75146;BME280;63641;46.526;24.612;2023-01-28T11:43:30;97106.41;;;3.63;70.45
75146;BME280;63641;46.526;24.612;2023-01-28T11:57:41;97107.69;;;3.60;70.37
75146;BME280;63641;46.526;24.612;2023-01-28T12:06:32;97109.75;;;3.70;69.99
75146;BME280;63641;46.526;24.612;2023-01-28T12:09:23;97118.41;;;3.77;69.87
75146;BME280;63641;46.526;24.612;2023-01-28T12:21:29;97124.16;;;3.86;69.75
75146;BME280;63641;46.526;24.612;2023-01-28T12:38:57;97129.50;;;3.52;70.64
75146;BME280;63641;46.526;24.612;2023-01-28T12:42:50;97131.63;;;3.50;70.65
75146;BME280;63641;46.526;24.612;2023-01-28T12:44:51;97126.75;;;3.47;70.46
75146;BME280;63641;46.526;24.612;2023-01-28T12:47:22;97130.94;;;3.43;70.69
75146;BME280;63641;46.526;24.612;2023-01-28T12:49:55;97131.66;;;3.38;70.90
75146;BME280;63641;46.526;24.612;2023-01-28T12:52:30;97131.19;;;3.42;70.92
75146;BME280;63641;46.526;24.612;2023-01-28T12:55:03;97140.59;;;3.44;70.67
75146;BME280;63641;46.526;24.612;2023-01-28T12:57:38;97139.78;;;3.44;70.77
75146;BME280;63641;46.526;24.612;2023-01-28T13:00:27;97140.25;;;3.41;70.94
75146;BME280;63641;46.526;24.612;2023-01-28T13:05:42;97141.53;;;3.38;70.87
75146;BME280;63641;46.526;24.612;2023-01-28T13:08:14;97145.59;;;3.41;70.82
75146;BME280;63641;46.526;24.612;2023-01-28T13:10:44;97144.47;;;3.36;70.68
75146;BME280;63641;46.526;24.612;2023-01-28T13:13:19;97154.22;;;3.43;70.86
75146;BME280;63641;46.526;24.612;2023-01-28T13:15:46;97158.25;;;3.45;70.82
75146;BME280;63641;46.526;24.612;2023-01-28T13:21:03;97161.50;;;3.47;70.82
75146;BME280;63641;46.526;24.612;2023-01-28T13:26:28;97162.31;;;3.48;70.60
75146;BME280;63641;46.526;24.612;2023-01-28T13:29:29;97158.59;;;3.49;70.81
75146;BME280;63641;46.526;24.612;2023-01-28T13:32:00;97172.44;;;3.46;70.77
75146;BME280;63641;46.526;24.612;2023-01-28T13:34:38;97168.63;;;3.42;70.82
75146;BME280;63641;46.526;24.612;2023-01-28T13:39:46;97170.06;;;3.32;70.91
75146;BME280;63641;46.526;24.612;2023-01-28T13:42:26;97167.38;;;3.32;71.10
75146;BME280;63641;46.526;24.612;2023-01-28T13:44:54;97178.31;;;3.31;71.21
75146;BME280;63641;46.526;24.612;2023-01-28T13:50:15;97169.06;;;3.22;71.30
75146;BME280;63641;46.526;24.612;2023-01-28T13:52:58;97176.81;;;3.23;71.23
75146;BME280;63641;46.526;24.612;2023-01-28T13:55:34;97169.72;;;3.29;71.21
75146;BME280;63641;46.526;24.612;2023-01-28T14:04:10;97172.28;;;3.35;70.89
75146;BME280;63641;46.526;24.612;2023-01-28T14:07:19;97166.34;;;3.33;70.70
75146;BME280;63641;46.526;24.612;2023-01-28T14:18:27;97175.28;;;3.39;70.26
75146;BME280;63641;46.526;24.612;2023-01-28T14:20:59;97175.06;;;3.29;70.43
75146;BME280;63641;46.526;24.612;2023-01-28T14:23:28;97181.38;;;3.23;70.62
75146;BME280;63641;46.526;24.612;2023-01-28T14:31:27;97187.03;;;2.86;71.35
75146;BME280;63641;46.526;24.612;2023-01-28T14:34:08;97191.59;;;2.74;71.69
75146;BME280;63641;46.526;24.612;2023-01-28T14:36:39;97190.56;;;2.63;71.95
75146;BME280;63641;46.526;24.612;2023-01-28T14:39:59;97191.13;;;2.53;72.07
75146;BME280;63641;46.526;24.612;2023-01-28T14:42:01;97200.09;;;2.47;72.11
75146;BME280;63641;46.526;24.612;2023-01-28T14:44:35;97202.41;;;2.44;72.03
75146;BME280;63641;46.526;24.612;2023-01-28T14:50:29;97198.81;;;2.38;72.32
75146;BME280;63641;46.526;24.612;2023-01-28T14:58:48;97201.00;;;2.17;72.44
75146;BME280;63641;46.526;24.612;2023-01-28T15:01:19;97203.44;;;2.19;72.32
75146;BME280;63641;46.526;24.612;2023-01-28T15:03:47;97204.13;;;2.14;72.65
75146;BME280;63641;46.526;24.612;2023-01-28T15:06:16;97202.72;;;2.12;72.65
75146;BME280;63641;46.526;24.612;2023-01-28T15:08:43;97201.81;;;2.06;72.64
75146;BME280;63641;46.526;24.612;2023-01-28T15:11:14;97200.97;;;2.06;72.82
75146;BME280;63641;46.526;24.612;2023-01-28T15:13:47;97208.31;;;2.10;72.75
75146;BME280;63641;46.526;24.612;2023-01-28T15:16:23;97217.13;;;2.11;72.72
75146;BME280;63641;46.526;24.612;2023-01-28T15:18:51;97214.66;;;2.09;72.75
75146;BME280;63641;46.526;24.612;2023-01-28T15:21:19;97220.81;;;2.10;72.72
75146;BME280;63641;46.526;24.612;2023-01-28T15:23:52;97235.00;;;2.10;72.98
75146;BME280;63641;46.526;24.612;2023-01-28T15:26:26;97235.34;;;2.14;72.94
75146;BME280;63641;46.526;24.612;2023-01-28T15:28:54;97237.53;;;2.17;72.77